| time (UTC) | temp F | wind direction | speed knots | gust knots | rain 1hr in | rain 24hr in | rain mn in | humidity % | barometer mb |
| 20260906220002 | 83 | 230 | 0.0 | 4.3 | 0.00 | 0.00 | 0.00 | 19 | 1001.5 |
| 20260906214604 | 83 | 230 | 0.0 | 2.6 | 0.00 | 0.00 | 0.00 | 19 | 1001.8 |
| 20260906213055 | 84 | 230 | 0.9 | 3.5 | 0.00 | 0.00 | 0.00 | 18 | 1002.1 |
| 20260906211558 | 85 | 230 | 0.0 | 2.6 | 0.00 | 0.00 | 0.00 | 17 | 1002.4 |
| 20260906204549 | 87 | 229 | 0.9 | 3.5 | 0.00 | 0.00 | 0.00 | 16 | 1002.6 |
| 20260906203046 | 86 | 234 | 0.9 | 5.2 | 0.00 | 0.00 | 0.00 | 16 | 1002.7 |
| 20260906201545 | 86 | 234 | 0.9 | 3.5 | 0.00 | 0.00 | 0.00 | 18 | 1002.9 |
| 20260906200048 | 84 | 234 | 0.0 | 5.2 | 0.00 | 0.00 | 0.00 | 19 | 1003.2 |
| 20260906194537 | 83 | 234 | 0.9 | 4.3 | 0.00 | 0.00 | 0.00 | 19 | 1003.3 |
| 20260906193032 | 82 | 234 | 0.9 | 6.1 | 0.00 | 0.00 | 0.00 | 19 | 1003.5 |
| 20260906191540 | 81 | 235 | 0.9 | 4.3 | 0.00 | 0.00 | 0.00 | 20 | 1003.7 |
| 20260906190039 | 82 | 236 | 0.9 | 3.5 | 0.00 | 0.00 | 0.00 | 20 | 1003.9 |
| 20260906184525 | 82 | 236 | 0.9 | 4.3 | 0.00 | 0.00 | 0.00 | 19 | 1004.1 |
| 20260906183029 | 83 | 236 | 0.0 | 4.3 | 0.00 | 0.00 | 0.00 | 19 | 1004.2 |
| 20260906181531 | 82 | 234 | 0.9 | 6.1 | 0.00 | 0.00 | 0.00 | 21 | 1004.4 |
| 20260906180016 | 81 | 234 | 0.0 | 4.3 | 0.00 | 0.00 | 0.00 | 20 | 1004.7 |
| 20260906174513 | 81 | 240 | 1.7 | 6.1 | 0.00 | 0.00 | 0.00 | 20 | 1004.6 |
| 20260906173008 | 80 | 251 | 0.0 | 7.8 | 0.00 | 0.00 | 0.00 | 23 | 1004.8 |
| 20260906171504 | 79 | 254 | 0.0 | 4.3 | 0.00 | 0.00 | 0.00 | 26 | 1004.9 |
| 20260906164605 | 77 | 254 | 1.7 | 4.3 | 0.00 | 0.00 | 0.00 | 30 | 1004.9 |
| 20260906163049 | 74 | 254 | 0.0 | 3.5 | 0.00 | 0.00 | 0.00 | 35 | 1004.9 |
| 20260906161544 | 71 | 360 | 0.0 | 1.7 | 0.00 | 0.00 | 0.00 | 39 | 1005.0 |
| 20260906160043 | 70 | 360 | 0.0 | 2.6 | 0.00 | 0.00 | 0.00 | 42 | 1005.0 |
| 20260906154546 | 68 | 254 | 0.0 | 1.7 | 0.00 | 0.00 | 0.00 | 44 | 1004.9 |
| 20260906153036 | 64 | 254 | 0.0 | 1.7 | 0.00 | 0.00 | 0.00 | 51 | 1004.8 |
| 20260906151523 | 60 | 360 | 0.0 | 2.6 | 0.00 | 0.00 | 0.00 | 57 | 1004.9 |
| 20260906150021 | 57 | 360 | 0.0 | 0.9 | 0.00 | 0.00 | 0.00 | 62 | 1004.9 |
| 20260906144516 | 55 | 360 | 0.0 | 0.9 | 0.00 | 0.00 | 0.00 | 71 | 1004.8 |
| 20260906143010 | 54 | 360 | 0.0 | 0.0 | 0.00 | 0.00 | 0.00 | 73 | 1004.5 |
| 20260906141510 | 54 | 360 | 0.0 | 0.0 | 0.00 | 0.00 | 0.00 | 73 | 1004.5 |
| 20260906140010 | 53 | 360 | 0.0 | 0.9 | 0.00 | 0.00 | 0.00 | 71 | 1004.4 |
| 20260906134503 | 53 | 360 | 0.0 | 0.0 | 0.00 | 0.00 | 0.00 | 71 | 1004.3 |
| 20260906133107 | 53 | 360 | 0.0 | 0.0 | 0.00 | 0.00 | 0.00 | 71 | 1004.1 |
| 20260906131600 | 53 | 360 | 0.0 | 0.9 | 0.00 | 0.00 | 0.00 | 71 | 1003.9 |
| 20260906130055 | 53 | 360 | 0.0 | 0.9 | 0.00 | 0.00 | 0.00 | 72 | 1003.7 |
| 20260906124553 | 53 | 360 | 0.0 | 1.7 | 0.00 | 0.00 | 0.00 | 71 | 1003.3 |
| 20260906123049 | 53 | 360 | 0.0 | 1.7 | 0.00 | 0.00 | 0.00 | 71 | 1003.3 |
| 20260906121548 | 53 | 360 | 0.0 | 1.7 | 0.00 | 0.00 | 0.00 | 71 | 1003.2 |
| 20260906120047 | 53 | 360 | 0.0 | 1.7 | 0.00 | 0.00 | 0.00 | 70 | 1003.1 |
| 20260906114549 | 53 | 360 | 0.0 | 1.7 | 0.00 | 0.00 | 0.00 | 70 | 1003.2 |
| 20260906113046 | 53 | 360 | 0.0 | 0.9 | 0.00 | 0.00 | 0.00 | 69 | 1003.3 |
| 20260906111541 | 53 | 360 | 0.0 | 1.7 | 0.00 | 0.00 | 0.00 | 69 | 1003.4 |
| 20260906110040 | 53 | 360 | 0.0 | 1.7 | 0.00 | 0.00 | 0.00 | 69 | 1003.3 |
| 20260906104538 | 53 | 360 | 0.0 | 0.9 | 0.00 | 0.00 | 0.00 | 69 | 1003.3 |
| 20260906103034 | 53 | 360 | 0.0 | 0.9 | 0.00 | 0.00 | 0.00 | 69 | 1003.2 |
| 20260906101533 | 54 | 360 | 0.0 | 0.9 | 0.00 | 0.00 | 0.00 | 68 | 1003.0 |
| 20260906100031 | 54 | 360 | 0.0 | 0.9 | 0.00 | 0.00 | 0.00 | 68 | 1003.0 |
| 20260906094534 | 54 | 360 | 0.0 | 0.9 | 0.00 | 0.00 | 0.00 | 68 | 1003.0 |
| 20260906093027 | 54 | 360 | 0.0 | 1.7 | 0.00 | 0.00 | 0.00 | 66 | 1002.9 |
| 20260906091529 | 54 | 360 | 0.0 | 0.9 | 0.00 | 0.00 | 0.00 | 67 | 1003.0 |
| 20260906090023 | 54 | 360 | 0.0 | 0.9 | 0.00 | 0.00 | 0.00 | 67 | 1002.9 |
| 20260906084526 | 55 | 360 | 0.0 | 1.7 | 0.00 | 0.00 | 0.00 | 67 | 1002.8 |
| 20260906083023 | 55 | 360 | 0.0 | 0.9 | 0.00 | 0.00 | 0.00 | 67 | 1002.8 |
| 20260906081531 | 55 | 360 | 0.0 | 0.9 | 0.00 | 0.00 | 0.00 | 66 | 1002.9 |
| 20260906080014 | 56 | 360 | 0.0 | 0.0 | 0.00 | 0.00 | 0.00 | 66 | 1003.1 |
| 20260906074512 | 56 | 360 | 0.0 | 0.0 | 0.00 | 0.00 | 0.00 | 66 | 1002.9 |
| 20260906073007 | 56 | 360 | 0.0 | 0.9 | 0.00 | 0.00 | 0.00 | 64 | 1003.0 |
| 20260906071505 | 56 | 360 | 0.0 | 0.9 | 0.00 | 0.00 | 0.00 | 65 | 1003.0 |
| 20260906070006 | 57 | 360 | 0.0 | 1.7 | 0.00 | 0.00 | 0.00 | 65 | 1002.9 |
| 20260906064502 | 57 | 360 | 0.0 | 0.9 | 0.00 | 0.00 | 0.00 | 64 | 1003.0 |
| 20260906063056 | 57 | 360 | 0.0 | 0.9 | 0.00 | 0.00 | 0.00 | 63 | 1002.9 |
| 20260906061554 | 58 | 360 | 0.9 | 1.7 | 0.00 | 0.00 | 0.00 | 62 | 1002.8 |
| 20260906060051 | 58 | 360 | 0.0 | 1.7 | 0.00 | 0.00 | 0.00 | 62 | 1002.8 |
| 20260906054554 | 59 | 360 | 0.0 | 0.9 | 0.00 | 0.00 | 0.00 | 60 | 1002.8 |
| 20260906053046 | 59 | 360 | 0.0 | 0.9 | 0.00 | 0.00 | 0.00 | 61 | 1002.7 |
| 20260906051551 | 59 | 360 | 0.0 | 0.9 | 0.00 | 0.02 | 0.00 | 62 | 1002.8 |
| 20260906050108 | 59 | 360 | 0.0 | 0.9 | 0.00 | 0.02 | 0.00 | 60 | 1002.5 |
| 20260906044541 | 59 | 360 | 0.0 | 0.9 | 0.00 | 0.02 | 0.00 | 60 | 1002.6 |
| 20260906043038 | 60 | 360 | 0.0 | 0.9 | 0.00 | 0.02 | 0.00 | 59 | 1002.3 |
| 20260906041534 | 60 | 360 | 0.0 | 0.9 | 0.00 | 0.02 | 0.00 | 61 | 1002.1 |
| 20260906040036 | 60 | 360 | 0.0 | 1.7 | 0.00 | 0.02 | 0.00 | 59 | 1001.9 |
| 20260906034538 | 61 | 360 | 0.0 | 1.7 | 0.00 | 0.02 | 0.00 | 59 | 1001.8 |
| 20260906033028 | 61 | 360 | 0.0 | 0.9 | 0.00 | 0.02 | 0.00 | 58 | 1001.6 |
| 20260906031526 | 62 | 360 | 0.0 | 0.9 | 0.00 | 0.02 | 0.00 | 58 | 1001.5 |
| 20260906030018 | 63 | 360 | 0.0 | 0.9 | 0.00 | 0.02 | 0.00 | 57 | 1001.3 |
| 20260906024515 | 63 | 360 | 0.0 | 1.7 | 0.00 | 0.02 | 0.00 | 56 | 1000.9 |
| 20260906023010 | 64 | 360 | 0.0 | 0.9 | 0.00 | 0.02 | 0.00 | 56 | 1000.7 |
| 20260906021506 | 65 | 360 | 0.0 | 0.9 | 0.00 | 0.02 | 0.00 | 54 | 1000.5 |
| 20260906020001 | 66 | 360 | 0.0 | 0.9 | 0.00 | 0.02 | 0.00 | 53 | 1000.2 |
| 20260906014609 | 67 | 360 | 0.0 | 0.9 | 0.00 | 0.02 | 0.00 | 52 | 1000.2 |
| 20260906013054 | 69 | 360 | 0.0 | 0.0 | 0.00 | 0.02 | 0.00 | 49 | 1000.2 |
| 20260906011547 | 72 | 360 | 0.0 | 0.0 | 0.00 | 0.02 | 0.00 | 48 | 999.9 |
| 20260906010043 | 74 | 360 | 0.0 | 0.0 | 0.00 | 0.02 | 0.00 | 44 | 999.8 |
| 20260906004542 | 75 | 360 | 0.0 | 0.9 | 0.00 | 0.02 | 0.00 | 43 | 999.9 |
| 20260906003136 | 0 | 0.0 | 0.0 | 0.00 | 0.02 | 0.00 | 1000.0 |